createdAt,value
2022-12-12T00:00:37.352Z,8.68
2022-12-12T00:03:29.133Z,8.53
2022-12-12T00:09:00.752Z,7.65
2022-12-12T00:11:52.335Z,8.18
2022-12-12T00:14:43.974Z,7.95
2022-12-12T00:17:35.681Z,8.23
2022-12-12T00:20:27.058Z,7.60
2022-12-12T00:23:21.324Z,7.75
2022-12-12T00:26:18.461Z,7.72
2022-12-12T00:29:10.330Z,8.10
2022-12-12T00:32:01.673Z,8.03
2022-12-12T00:34:53.708Z,8.13
2022-12-12T00:43:02.904Z,8.73
2022-12-12T00:46:04.061Z,7.87
2022-12-12T00:49:00.801Z,7.85
2022-12-12T00:51:52.681Z,8.45
2022-12-12T00:54:44.167Z,7.20
2022-12-12T00:57:35.994Z,7.70
2022-12-12T01:00:28.123Z,7.72
2022-12-12T01:05:58.009Z,7.25
2022-12-12T01:08:49.578Z,8.43
2022-12-12T01:11:41.212Z,9.00
2022-12-12T01:14:32.872Z,9.05
2022-12-12T01:17:24.582Z,9.60
2022-12-12T01:20:20.837Z,8.90
2022-12-12T01:25:52.161Z,8.33
2022-12-12T01:31:24.605Z,7.72
2022-12-12T01:34:17.203Z,8.03
2022-12-12T01:37:09.277Z,7.95
2022-12-12T01:40:01.013Z,8.78
2022-12-12T01:46:24.818Z,8.68
2022-12-12T01:49:25.069Z,8.28
2022-12-12T01:52:19.896Z,8.75
2022-12-12T01:55:15.025Z,7.92
2022-12-12T02:00:50.698Z,8.15
2022-12-12T02:03:43.633Z,8.13
2022-12-12T02:06:35.449Z,7.70
2022-12-12T02:09:28.282Z,7.50
2022-12-12T02:12:21.503Z,7.53
2022-12-12T02:15:15.491Z,7.90
2022-12-12T02:20:55.962Z,8.38
2022-12-12T02:27:29.459Z,8.63
2022-12-12T02:30:23.849Z,8.73
2022-12-12T02:33:38.089Z,9.18
2022-12-12T02:36:32.940Z,9.45
2022-12-12T02:42:21.545Z,8.38
2022-12-12T02:45:17.368Z,8.13
2022-12-12T02:48:12.706Z,8.95
2022-12-12T02:51:07.458Z,8.08
2022-12-12T02:56:54.010Z,7.05
2022-12-12T03:02:42.024Z,7.40
2022-12-12T03:08:27.037Z,6.25
2022-12-12T03:11:23.340Z,6.80
2022-12-12T03:14:18.269Z,6.70
2022-12-12T03:19:59.649Z,6.42
2022-12-12T03:22:54.031Z,6.20
2022-12-12T03:25:48.407Z,6.17
2022-12-12T03:28:43.493Z,6.97
2022-12-12T03:31:38.412Z,6.50
2022-12-12T03:34:34.301Z,6.80
2022-12-12T03:37:29.588Z,6.60
2022-12-12T03:40:24.421Z,7.20
2022-12-12T03:43:18.403Z,7.03
2022-12-12T03:46:13.174Z,6.65
2022-12-12T03:49:08.301Z,6.90
2022-12-12T03:52:02.792Z,7.28
2022-12-12T03:54:58.093Z,7.67
2022-12-12T03:57:53.631Z,9.38
2022-12-12T04:00:47.549Z,9.65
2022-12-12T04:03:43.359Z,10.35
2022-12-12T04:06:38.175Z,9.70
2022-12-12T04:09:48.684Z,10.38
2022-12-12T04:13:03.235Z,9.75
2022-12-12T04:16:00.119Z,9.48
2022-12-12T04:18:55.172Z,9.25
2022-12-12T04:22:07.176Z,8.83
2022-12-12T04:25:02.498Z,9.05
2022-12-12T04:27:56.575Z,8.65
2022-12-12T04:30:48.279Z,8.73
2022-12-12T04:36:22.710Z,9.70
2022-12-12T04:39:16.624Z,9.30
2022-12-12T04:42:10.687Z,8.83
2022-12-12T04:45:04.992Z,8.78
2022-12-12T04:47:58.383Z,8.40
2022-12-12T04:50:52.697Z,9.05
2022-12-12T04:56:28.394Z,7.45
2022-12-12T04:59:20.525Z,6.30
2022-12-12T05:02:18.312Z,6.75
2022-12-12T05:05:15.423Z,6.17
2022-12-12T05:10:47.927Z,6.17
2022-12-12T05:13:41.081Z,6.22
2022-12-12T05:16:36.154Z,5.85
2022-12-12T05:19:28.125Z,5.95
2022-12-12T05:22:19.966Z,6.28
2022-12-12T05:25:12.683Z,7.65
2022-12-12T05:36:05.912Z,9.28
2022-12-12T05:41:37.071Z,9.88
2022-12-12T05:47:13.052Z,10.25
2022-12-12T05:50:08.377Z,10.63
2022-12-12T06:01:08.774Z,10.75
2022-12-12T06:04:00.322Z,10.10
2022-12-12T06:06:56.088Z,10.95
2022-12-12T06:09:49.650Z,10.90
2022-12-12T06:12:41.639Z,10.28
2022-12-12T06:15:33.108Z,10.65
2022-12-12T06:21:10.212Z,10.75
2022-12-12T06:24:02.069Z,9.63
2022-12-12T06:26:53.209Z,10.13
2022-12-12T06:29:45.209Z,9.70
2022-12-12T06:32:36.782Z,9.58
2022-12-12T06:35:28.312Z,10.43
2022-12-12T06:40:59.945Z,10.32
2022-12-12T06:43:52.680Z,10.43
2022-12-12T06:46:44.505Z,10.48
2022-12-12T06:49:36.348Z,10.63
2022-12-12T06:52:28.068Z,10.63
2022-12-12T06:58:06.100Z,10.03
2022-12-12T07:00:57.816Z,8.90
2022-12-12T07:06:28.267Z,7.22
2022-12-12T07:09:20.778Z,7.97
2022-12-12T07:12:12.505Z,7.72
2022-12-12T07:15:05.598Z,8.78
2022-12-12T07:23:26.595Z,8.33
2022-12-12T07:26:20.754Z,6.50
2022-12-12T07:29:14.737Z,6.03
2022-12-12T07:32:11.069Z,5.62
2022-12-12T07:35:04.836Z,5.55
2022-12-12T07:37:56.919Z,5.45
2022-12-12T07:40:48.213Z,5.47
2022-12-12T07:46:23.739Z,6.00
2022-12-12T07:49:15.740Z,5.95
2022-12-12T07:54:53.166Z,5.97
2022-12-12T07:57:47.135Z,7.65
2022-12-12T08:00:40.995Z,6.05
2022-12-12T08:06:13.027Z,6.80
2022-12-12T08:09:04.667Z,6.60
2022-12-12T08:11:58.900Z,7.30
2022-12-12T08:14:53.748Z,7.58
2022-12-12T08:17:46.184Z,6.45
2022-12-12T08:25:56.777Z,7.00
2022-12-12T08:28:49.532Z,7.50
2022-12-12T08:31:42.089Z,6.97
2022-12-12T08:34:34.616Z,7.00
2022-12-12T08:37:26.798Z,8.50
2022-12-12T08:40:19.050Z,8.18
2022-12-12T08:45:56.214Z,9.03
2022-12-12T08:48:48.783Z,9.63
2022-12-12T08:51:44.188Z,10.50
2022-12-12T08:54:36.068Z,9.98
2022-12-12T08:57:28.025Z,9.95
2022-12-12T09:00:20.611Z,10.10
2022-12-12T09:05:54.905Z,9.60
2022-12-12T09:08:47.357Z,9.80
2022-12-12T09:14:22.354Z,9.05
2022-12-12T09:17:15.984Z,8.95
2022-12-12T09:20:08.976Z,7.97
2022-12-12T09:23:00.234Z,8.43
2022-12-12T09:25:52.392Z,7.33
2022-12-12T09:31:24.161Z,8.18
2022-12-12T09:34:15.619Z,8.83
2022-12-12T09:37:07.635Z,9.33
2022-12-12T09:45:26.430Z,10.18
2022-12-12T09:50:57.036Z,11.45
2022-12-12T09:53:51.837Z,10.32
2022-12-12T09:56:48.519Z,10.80
2022-12-12T09:59:44.845Z,11.95
2022-12-12T10:05:51.202Z,12.30
2022-12-12T10:08:45.395Z,11.90
2022-12-12T10:14:19.467Z,11.97
2022-12-12T10:20:09.178Z,11.88
2022-12-12T10:23:04.061Z,11.53
2022-12-12T10:28:45.033Z,11.45
2022-12-12T10:34:14.482Z,11.20
2022-12-12T10:37:13.450Z,12.00
2022-12-12T10:42:52.278Z,13.30
2022-12-12T10:51:13.169Z,9.73
2022-12-12T10:54:08.931Z,9.45
2022-12-12T10:57:20.057Z,9.48
2022-12-12T11:03:00.926Z,9.10
2022-12-12T11:05:55.093Z,8.28
2022-12-12T11:08:56.959Z,9.00
2022-12-12T11:12:00.234Z,8.70
2022-12-12T11:17:33.237Z,8.35
2022-12-12T11:20:28.620Z,8.05
2022-12-12T11:26:08.151Z,7.03
2022-12-12T11:31:44.824Z,6.72
2022-12-12T11:37:22.552Z,7.85
2022-12-12T11:46:08.784Z,7.30
2022-12-12T11:51:44.317Z,7.17
2022-12-12T11:54:35.711Z,7.58
2022-12-12T11:57:37.617Z,6.87
2022-12-12T12:06:21.969Z,5.85
2022-12-12T12:09:28.473Z,6.60
2022-12-12T12:12:23.301Z,6.75
2022-12-12T12:15:27.533Z,7.08
2022-12-12T12:24:16.943Z,6.22
2022-12-12T12:27:12.394Z,6.83
2022-12-12T12:30:21.520Z,6.30
2022-12-12T12:36:21.136Z,6.20
2022-12-12T12:42:03.271Z,6.47
2022-12-12T12:47:42.051Z,6.25
2022-12-12T12:50:36.976Z,6.08
2022-12-12T12:56:12.220Z,5.62
2022-12-12T12:59:08.589Z,6.92
2022-12-12T13:02:05.380Z,6.78
2022-12-12T13:05:07.360Z,6.05
2022-12-12T13:10:49.235Z,5.85
2022-12-12T13:16:33.058Z,6.30
2022-12-12T13:19:28.456Z,5.55
2022-12-12T13:22:22.880Z,5.15
2022-12-12T13:28:03.333Z,5.25
2022-12-12T13:31:13.391Z,4.93
2022-12-12T13:34:08.104Z,4.95
2022-12-12T13:37:00.747Z,4.70
2022-12-12T13:40:03.112Z,5.20
2022-12-12T13:43:04.084Z,4.90
2022-12-12T13:45:54.383Z,5.20
2022-12-12T13:48:50.191Z,4.78
2022-12-12T13:51:49.848Z,4.58
2022-12-12T13:54:51.925Z,4.42
2022-12-12T14:01:39.760Z,4.47
2022-12-12T14:07:16.552Z,4.62
2022-12-12T14:10:25.758Z,4.45
2022-12-12T14:13:31.342Z,4.55
2022-12-12T14:16:28.958Z,4.83
2022-12-12T14:22:30.099Z,5.28
2022-12-12T14:25:30.348Z,4.40
2022-12-12T14:31:17.565Z,4.70
2022-12-12T14:37:27.560Z,4.90
2022-12-12T14:40:22.116Z,4.55
2022-12-12T14:46:01.454Z,5.42
2022-12-12T14:51:48.405Z,5.12
2022-12-12T14:57:25.997Z,5.35
2022-12-12T15:00:21.339Z,6.65
2022-12-12T15:05:52.693Z,6.65
2022-12-12T15:08:44.616Z,6.60
2022-12-12T15:11:37.083Z,5.35
2022-12-12T15:14:29.423Z,5.45
2022-12-12T15:17:24.179Z,5.08
2022-12-12T15:20:20.692Z,4.70
2022-12-12T15:23:21.193Z,4.97
2022-12-12T15:26:20.294Z,4.92
2022-12-12T15:29:18.684Z,4.87
2022-12-12T15:32:16.459Z,4.33
2022-12-12T15:35:16.268Z,3.93
2022-12-12T15:38:15.676Z,4.15
2022-12-12T15:41:13.342Z,4.65
2022-12-12T15:44:02.694Z,4.72
2022-12-12T15:46:56.013Z,5.25
2022-12-12T15:49:48.989Z,5.30
2022-12-12T15:52:42.415Z,5.22
2022-12-12T15:55:35.802Z,5.45
2022-12-12T15:58:32.132Z,5.72
2022-12-12T16:01:28.462Z,5.42
2022-12-12T16:04:27.024Z,6.17
2022-12-12T16:10:06.637Z,6.28
2022-12-12T16:13:03.373Z,6.00
2022-12-12T16:15:55.324Z,5.60
2022-12-12T16:18:47.119Z,5.33
2022-12-12T16:24:29.228Z,6.42
2022-12-12T16:27:21.725Z,5.25
2022-12-12T16:30:15.799Z,4.90
2022-12-12T16:33:15.577Z,5.47
2022-12-12T16:36:10.754Z,5.40
2022-12-12T16:39:02.138Z,5.53
2022-12-12T16:41:53.832Z,5.05
2022-12-12T16:44:47.307Z,5.30
2022-12-12T16:47:38.841Z,4.85
2022-12-12T16:50:30.319Z,4.87
2022-12-12T16:53:21.969Z,5.60
2022-12-12T16:56:16.544Z,5.80
2022-12-12T16:59:09.074Z,6.10
2022-12-12T17:02:00.260Z,5.92
2022-12-12T17:04:53.258Z,5.80
2022-12-12T17:07:44.473Z,5.87
2022-12-12T17:10:36.867Z,6.45
2022-12-12T17:13:29.652Z,6.47
2022-12-12T17:16:27.551Z,6.55
2022-12-12T17:22:06.868Z,6.10
2022-12-12T17:24:58.338Z,5.85
2022-12-12T17:27:50.572Z,6.95
2022-12-12T17:30:42.667Z,6.35
2022-12-12T17:36:20.084Z,6.30
2022-12-12T17:39:12.107Z,6.40
2022-12-12T17:42:04.831Z,6.10
2022-12-12T17:44:57.149Z,6.42
2022-12-12T17:50:30.003Z,6.55
2022-12-12T17:53:21.912Z,6.60
2022-12-12T17:56:16.093Z,6.62
2022-12-12T17:59:10.022Z,7.45
2022-12-12T18:02:01.939Z,6.67
2022-12-12T18:04:53.960Z,6.90
2022-12-12T18:07:45.458Z,7.45
2022-12-12T18:10:37.593Z,7.10
2022-12-12T18:13:29.175Z,7.28
2022-12-12T18:16:21.358Z,6.85
2022-12-12T18:19:15.800Z,8.15
2022-12-12T18:22:08.239Z,8.53
2022-12-12T18:25:00.875Z,8.83
2022-12-12T18:27:52.782Z,8.48
2022-12-12T18:30:43.815Z,8.00
2022-12-12T18:33:35.412Z,8.20
2022-12-12T18:36:28.759Z,8.08
2022-12-12T18:39:20.157Z,8.63
2022-12-12T18:42:12.403Z,8.50
2022-12-12T18:45:04.560Z,8.98
2022-12-12T18:47:56.252Z,8.95
2022-12-12T18:50:47.745Z,9.00
2022-12-12T18:53:41.709Z,9.45
2022-12-12T18:59:18.421Z,8.78
2022-12-12T19:02:13.803Z,9.23
2022-12-12T19:05:05.539Z,9.30
2022-12-12T19:07:57.247Z,10.00
2022-12-12T19:10:49.045Z,9.43
2022-12-12T19:13:41.158Z,9.28
2022-12-12T19:16:32.615Z,8.70
2022-12-12T19:19:24.647Z,8.78
2022-12-12T19:22:43.916Z,9.83
2022-12-12T19:25:12.383Z,9.50
2022-12-12T19:28:04.538Z,9.10
2022-12-12T19:30:56.180Z,9.98
2022-12-12T19:33:50.158Z,10.20
2022-12-12T19:36:42.435Z,9.73
2022-12-12T19:39:34.226Z,10.32
2022-12-12T19:42:26.327Z,10.78
2022-12-12T19:45:18.350Z,11.22
2022-12-12T19:48:11.689Z,10.32
2022-12-12T19:51:09.029Z,10.38
2022-12-12T19:54:01.950Z,10.20
2022-12-12T19:57:04.849Z,10.10
2022-12-12T19:59:56.558Z,11.12
2022-12-12T20:05:26.584Z,10.08
2022-12-12T20:08:18.391Z,10.82
2022-12-12T20:11:13.297Z,11.00
2022-12-12T20:14:15.512Z,10.95
2022-12-12T20:17:14.089Z,10.10
2022-12-12T20:20:25.040Z,10.65
2022-12-12T20:23:16.681Z,10.63
2022-12-12T20:26:10.053Z,11.12
2022-12-12T20:31:45.574Z,10.40
2022-12-12T20:34:37.482Z,10.82
2022-12-12T20:37:29.445Z,11.15
2022-12-12T20:43:05.068Z,14.43
2022-12-12T20:45:57.216Z,12.07
2022-12-12T20:48:50.345Z,11.80
2022-12-12T20:51:58.900Z,11.65
2022-12-12T20:54:36.003Z,11.15
2022-12-12T20:57:27.583Z,11.35
2022-12-12T21:00:20.503Z,11.68
2022-12-12T21:05:54.726Z,11.38
2022-12-12T21:08:47.762Z,11.48
2022-12-12T21:14:30.954Z,12.25
2022-12-12T21:17:23.624Z,11.88
2022-12-12T21:20:18.161Z,12.55
2022-12-12T21:23:09.639Z,11.80
2022-12-12T21:26:07.912Z,11.68
2022-12-12T21:29:02.032Z,8.80
2022-12-12T21:31:55.264Z,12.03
2022-12-12T21:34:46.945Z,12.98
2022-12-12T21:40:19.804Z,13.03
2022-12-12T21:43:11.475Z,12.28
2022-12-12T21:46:05.200Z,13.15
2022-12-12T21:49:24.717Z,13.50
2022-12-12T21:52:15.805Z,13.68
2022-12-12T21:55:10.598Z,13.70
2022-12-12T22:00:43.948Z,13.98
2022-12-12T22:06:16.191Z,14.93
2022-12-12T22:09:10.274Z,15.93
2022-12-12T22:12:03.621Z,15.53
2022-12-12T22:17:36.168Z,15.90
2022-12-12T22:20:36.187Z,16.90
2022-12-12T22:23:27.534Z,15.30
2022-12-12T22:26:22.132Z,15.75
2022-12-12T22:29:15.795Z,15.45
2022-12-12T22:32:07.861Z,14.80
2022-12-12T22:34:59.562Z,14.63
2022-12-12T22:40:29.795Z,15.60
2022-12-12T22:43:22.544Z,16.60
2022-12-12T22:46:14.355Z,16.23
2022-12-12T22:49:05.897Z,16.52
2022-12-12T22:51:59.307Z,15.72
2022-12-12T22:57:32.112Z,16.45
2022-12-12T23:00:24.845Z,16.07
2022-12-12T23:03:20.306Z,15.63
2022-12-12T23:06:13.969Z,15.85
2022-12-12T23:09:08.210Z,16.52
2022-12-12T23:11:59.565Z,16.75
2022-12-12T23:14:51.152Z,17.00
2022-12-12T23:20:26.146Z,17.05
2022-12-12T23:23:17.784Z,17.52
2022-12-12T23:26:11.307Z,15.20
2022-12-12T23:29:03.052Z,15.90
2022-12-12T23:31:55.055Z,16.65
2022-12-12T23:34:49.486Z,16.55
2022-12-12T23:40:19.410Z,17.07
2022-12-12T23:43:10.896Z,16.15
2022-12-12T23:46:05.020Z,17.55
2022-12-12T23:48:56.942Z,16.95
2022-12-12T23:51:50.714Z,16.32
2022-12-12T23:54:42.878Z,18.82
